Terminal Aerodrome Forecast
Issued by NWS

Home | Current Version | Previous Version | Text Only | Print | Product List | Glossary On
Versions: 1 2 3 4 5 6 7 8 9 10 11 12 13 14 15 16 17 18 19 20 21 22 23 24 25
000
FTUS43 KILX 271020 AAE
TAFBMI
TAF AMD
KBMI 271020Z 2710/2806 18009KT P6SM -TSRA FEW006 BKN035CB
      TEMPO 2712/2713 5SM +TSRA BR BKN012CB
     FM271300 16009KT 2SM -SHRA BR VCTS BKN008 OVC012CB
     FM271500 18007KT P6SM VCSH SCT006 OVC015
     FM272000 19011KT P6SM BKN035=

USA.gov is the U.S. government's official web portal to all federal, state and local government web resources and services.